Time;durP1;ratioP1;P1;durP2;ratioP2;P2;SDS_P1;SDS_P2;PMS_P1;PMS_P2;Temp;Humidity;BMP_temperature;BMP_pressure;BME280_temperature;BME280_humidity;BME280_pressure;Samples;Min_cycle;Max_cycle;Signal;HPM_P1;HPM_P2
2023/02/27 00:01:54;;;;;;;4.75;1.02;;;;;;;18.27;40.73;102762.91;5124293;27;20031;-69
2023/02/27 00:04:19;;;;;;;4.25;1.20;;;;;;;18.22;41.07;102757.00;5124437;27;20034;-69
2023/02/27 00:06:45;;;;;;;2.83;1.23;;;;;;;18.23;40.85;102762.22;5123192;27;20424;-69
2023/02/27 00:09:10;;;;;;;3.17;1.00;;;;;;;18.22;40.82;102764.94;5124224;27;20101;-69
2023/02/27 00:11:37;;;;;;;4.22;1.33;;;;;;;18.15;40.89;102763.53;5123693;27;20023;-69
2023/02/27 00:14:03;;;;;;;2.50;1.08;;;;;;;18.18;40.86;102769.50;5124556;27;20027;-69
2023/02/27 00:16:28;;;;;;;3.75;1.17;;;;;;;18.17;41.00;102766.97;5123804;27;20042;-66
2023/02/27 00:18:53;;;;;;;5.18;1.27;;;;;;;18.18;40.70;102768.66;5124832;27;20035;-69
2023/02/27 00:21:19;;;;;;;3.13;1.10;;;;;;;18.17;40.92;102761.69;5104854;27;20459;-69
2023/02/27 00:23:44;;;;;;;3.60;1.10;;;;;;;18.15;40.83;102767.03;5124034;27;20394;-67
2023/02/27 00:26:09;;;;;;;5.18;1.17;;;;;;;18.14;40.72;102770.59;5124020;27;20463;-68
2023/02/27 00:28:35;;;;;;;5.40;1.30;;;;;;;18.12;40.74;102764.56;5124237;27;20467;-69
2023/02/27 00:31:00;;;;;;;4.13;1.15;;;;;;;18.11;40.90;102753.13;5123445;27;20059;-67
2023/02/27 00:33:25;;;;;;;4.68;1.40;;;;;;;18.11;40.96;102763.69;5123988;27;20077;-68
2023/02/27 00:35:59;;;;;;;4.13;1.30;;;;;;;18.08;40.94;102758.56;5123724;27;20440;-68
2023/02/27 00:38:26;;;;;;;4.05;1.20;;;;;;;18.07;40.88;102756.00;5123712;27;20035;-67
2023/02/27 00:40:51;;;;;;;5.03;1.45;;;;;;;18.07;40.93;102758.63;5123391;27;20099;-68
2023/02/27 00:43:16;;;;;;;3.45;1.23;;;;;;;18.00;40.77;102750.19;5123826;27;20039;-68
2023/02/27 00:45:42;;;;;;;3.13;1.17;;;;;;;18.02;40.76;102755.38;5123588;27;20039;-68
2023/02/27 00:48:07;;;;;;;2.72;1.00;;;;;;;17.99;40.98;102744.97;5123381;27;20230;-70
2023/02/27 00:50:32;;;;;;;4.25;1.00;;;;;;;17.99;40.95;102744.97;5123368;27;20062;-69
2023/02/27 00:52:57;;;;;;;3.72;1.20;;;;;;;18.01;40.98;102751.03;5104681;27;20027;-67
2023/02/27 00:55:23;;;;;;;2.72;0.90;;;;;;;18.00;40.98;102754.63;5123063;27;20356;-68
2023/02/27 00:57:48;;;;;;;5.28;1.63;;;;;;;17.97;40.99;102747.69;5123758;27;20039;-68
2023/02/27 01:00:14;;;;;;;3.08;1.27;;;;;;;17.93;40.56;102747.00;5123078;27;20472;-68
2023/02/27 01:02:39;;;;;;;3.25;1.00;;;;;;;17.97;40.77;102750.34;5123091;27;20035;-67
2023/02/27 01:05:05;;;;;;;3.55;1.13;;;;;;;17.95;40.73;102753.06;5104753;27;20114;-69
2023/02/27 01:07:31;;;;;;;1.85;0.90;;;;;;;17.92;40.92;102741.81;5122775;27;20061;-69
2023/02/27 01:09:57;;;;;;;3.83;0.90;;;;;;;17.92;40.98;102747.09;5122725;27;20030;-68
2023/02/27 01:12:22;;;;;;;6.57;1.33;;;;;;;17.91;41.01;102750.63;5122776;27;20035;-69
2023/02/27 01:14:48;;;;;;;3.15;1.23;;;;;;;17.90;40.75;102746.31;5122986;27;20042;-68
2023/02/27 01:17:13;;;;;;;3.15;1.02;;;;;;;17.86;40.76;102742.09;5122831;27;20099;-67
2023/02/27 01:19:38;;;;;;;5.38;1.60;;;;;;;17.84;40.91;102736.88;5121691;27;20095;-68
2023/02/27 01:22:04;;;;;;;3.50;1.20;;;;;;;17.87;40.68;102746.44;5122718;27;20122;-68
2023/02/27 01:24:29;;;;;;;3.15;1.30;;;;;;;17.86;40.94;102744.72;5122680;27;20502;-69
2023/02/27 01:26:54;;;;;;;2.78;1.00;;;;;;;17.77;40.71;102731.06;5122615;27;20035;-69
2023/02/27 01:29:20;;;;;;;3.00;0.95;;;;;;;17.84;41.06;102747.44;5122846;27;20035;-69
2023/02/27 01:31:45;;;;;;;5.10;1.40;;;;;;;17.83;40.70;102748.38;5122463;27;20038;-69
2023/02/27 01:34:11;;;;;;;3.47;1.00;;;;;;;17.83;40.69;102747.50;5104366;27;20042;-69
2023/02/27 01:36:36;;;;;;;5.40;1.55;;;;;;;17.79;40.88;102738.06;5122432;27;20031;-68
2023/02/27 01:39:02;;;;;;;3.42;1.05;;;;;;;17.79;40.94;102743.34;5122281;27;20387;-68
2023/02/27 01:41:27;;;;;;;3.20;1.10;;;;;;;17.79;40.57;102745.97;5122259;27;20027;-69
2023/02/27 01:43:59;;;;;;;3.28;0.93;;;;;;;17.77;40.67;102746.88;5122410;27;20079;-69
2023/02/27 01:46:26;;;;;;;2.92;0.90;;;;;;;17.75;41.05;102745.25;5122297;27;20039;-69
2023/02/27 01:48:58;;;;;;;3.58;1.10;;;;;;;17.71;40.89;102739.28;5122386;27;20037;-69
2023/02/27 01:51:26;;;;;;;3.90;1.20;;;;;;;17.72;40.96;102738.38;5121806;27;20114;-69
2023/02/27 01:53:52;;;;;;;5.18;1.20;;;;;;;17.71;40.79;102736.66;5122544;27;20027;-69
2023/02/27 01:56:19;;;;;;;3.83;1.02;;;;;;;17.72;41.02;102740.13;5122272;27;20038;-69
2023/02/27 01:58:47;;;;;;;5.13;1.27;;;;;;;17.68;40.88;102734.16;5121967;27;20042;-68
2023/02/27 02:01:14;;;;;;;2.92;1.00;;;;;;;17.67;40.73;102729.81;5122083;27;20491;-69
2023/02/27 02:03:49;;;;;;;4.57;1.00;;;;;;;17.66;40.76;102729.91;5103679;27;20058;-68
2023/02/27 02:06:14;;;;;;;2.72;1.00;;;;;;;17.65;41.01;102729.03;5121747;27;20039;-68
2023/02/27 02:08:45;;;;;;;3.53;1.20;;;;;;;17.67;40.87;102736.88;5122014;27;20084;-70
2023/02/27 02:11:13;;;;;;;6.20;0.98;;;;;;;17.65;40.79;102730.81;5122319;27;20023;-69
2023/02/27 02:13:40;;;;;;;3.67;1.27;;;;;;;17.64;40.51;102735.25;5122167;27;20084;-69
2023/02/27 02:16:27;;;;;;;3.42;1.00;;;;;;;17.64;40.82;102740.53;5121584;27;20057;-68
2023/02/27 02:19:22;;;;;;;2.83;1.02;;;;;;;17.59;40.62;102735.47;5121895;27;20266;-69
2023/02/27 02:22:14;;;;;;;;;;;;;;;17.68;40.39;102738.59;5122043;27;20075;-68
2023/02/27 02:24:58;;;;;;;2.88;1.00;;;;;;;17.66;40.60;102737.81;5121608;27;19911;-68
2023/02/27 02:27:42;;;;;;;2.45;1.00;;;;;;;17.61;40.76;102739.81;5121877;27;20035;-68
2023/02/27 02:30:23;;;;;;;3.38;1.10;;;;;;;17.61;40.71;102742.44;5123159;27;20069;-67
2023/02/27 02:32:56;;;;;;;3.50;1.02;;;;;;;17.57;40.49;102736.47;5128539;27;20035;-68
2023/02/27 02:35:45;;;;;;;3.10;1.20;;;;;;;17.58;40.68;102740.81;5128962;27;20096;-67
2023/02/27 02:38:19;;;;;;;2.30;0.80;;;;;;;17.56;40.44;102740.91;5128742;27;20035;-68
2023/02/27 02:40:56;;;;;;;3.40;1.10;;;;;;;17.53;40.65;102743.69;5128480;27;20064;-69
2023/02/27 02:43:29;;;;;;;3.05;1.20;;;;;;;17.51;40.93;102742.88;5128327;27;20019;-69
2023/02/27 02:46:34;;;;;;;5.00;0.93;;;;;;;17.51;40.62;102745.53;5109747;27;20035;-69
2023/02/27 02:49:27;;;;;;;3.25;1.10;;;;;;;17.48;40.63;102740.44;5128639;27;20474;-68
2023/02/27 02:52:08;;;;;;;5.18;1.10;;;;;;;17.51;40.35;102748.16;5128204;27;20030;-69
2023/02/27 02:54:46;;;;;;;4.03;1.35;;;;;;;17.46;40.61;102739.63;5128358;27;20950;-68
2023/02/27 02:57:47;;;;;;;4.15;1.15;;;;;;;17.48;40.30;102755.38;5128753;27;20042;-68
2023/02/27 03:00:19;;;;;;;1.63;0.80;;;;;;;17.44;40.53;102738.00;5128429;27;20035;-68
2023/02/27 03:02:52;;;;;;;2.65;0.95;;;;;;;17.44;40.32;102738.84;5128201;27;20196;-68
2023/02/27 03:05:31;;;;;;;4.28;1.08;;;;;;;17.43;40.74;102745.03;5128105;27;20031;-68
2023/02/27 03:08:01;;;;;;;3.78;0.90;;;;;;;17.43;40.37;102742.41;5128260;27;20077;-69
2023/02/27 03:10:48;;;;;;;4.57;1.00;;;;;;;17.46;40.65;102749.31;5109628;27;20027;-68
2023/02/27 03:13:24;;;;;;;5.28;1.35;;;;;;;17.45;40.63;102750.25;5128248;27;20548;-68
2023/02/27 03:15:57;;;;;;;2.65;0.88;;;;;;;17.45;40.42;102753.75;5128427;27;20127;-69
2023/02/27 03:18:29;;;;;;;5.43;1.45;;;;;;;17.41;40.59;102744.28;5128112;27;20068;-69
2023/02/27 03:20:59;;;;;;;4.45;1.20;;;;;;;17.41;40.52;102753.03;5108860;27;20030;-68
2023/02/27 03:23:36;;;;;;;2.78;0.90;;;;;;;17.42;40.35;102756.53;5128180;27;20479;-69
2023/02/27 03:26:03;;;;;;;3.78;1.05;;;;;;;17.43;40.37;102760.00;5127925;27;20045;-69
2023/02/27 03:28:33;;;;;;;3.05;0.98;;;;;;;17.40;40.76;102756.59;5128183;27;20118;-69
2023/02/27 03:31:18;;;;;;;2.83;1.02;;;;;;;17.44;40.49;102762.56;5128259;27;20038;-70
2023/02/27 03:33:52;;;;;;;2.30;0.75;;;;;;;17.41;40.39;102760.94;5127825;27;20035;-69
2023/02/27 03:36:58;;;;;;;3.85;0.90;;;;;;;17.45;40.35;102774.84;5128213;27;20047;-70
2023/02/27 03:39:36;;;;;;;5.68;1.15;;;;;;;17.44;40.55;102767.00;5128014;27;20035;-68
2023/02/27 03:42:09;;;;;;;3.33;1.02;;;;;;;17.46;40.50;102770.41;5125611;27;20030;-68
2023/02/27 03:44:48;;;;;;;3.17;1.00;;;;;;;17.44;40.43;102770.47;5124871;27;20031;-68
2023/02/27 03:47:13;;;;;;;4.60;1.08;;;;;;;17.42;40.31;102764.44;5125092;27;20164;-68
2023/02/27 03:49:39;;;;;;;3.55;1.17;;;;;;;17.46;40.37;102775.69;5124524;27;20122;-67
2023/02/27 03:52:04;;;;;;;3.65;1.00;;;;;;;17.43;40.70;102766.13;5124715;27;20171;-71
2023/02/27 03:54:36;;;;;;;3.08;0.98;;;;;;;17.41;40.54;102776.75;5105963;27;20061;-68
2023/02/27 03:57:04;;;;;;;3.35;1.00;;;;;;;17.43;40.26;102775.84;5124323;27;20047;-68
2023/02/27 03:59:31;;;;;;;4.88;1.13;;;;;;;17.42;40.39;102769.72;5124308;27;20031;-69
2023/02/27 04:01:58;;;;;;;4.25;0.93;;;;;;;17.43;40.29;102775.84;5124335;27;20027;-69
2023/02/27 04:04:24;;;;;;;3.60;0.98;;;;;;;17.43;40.42;102776.66;5124314;27;20110;-68
2023/02/27 04:10:04;;;;;;;2.58;0.95;;;;;;;17.44;40.45;102785.47;5124395;27;20118;-68
2023/02/27 04:12:58;;;;;;;3.10;1.30;;;;;;;17.46;40.49;102784.44;5124316;27;20039;-68
2023/02/27 04:15:41;;;;;;;2.67;1.00;;;;;;;17.43;40.39;102776.66;5123722;27;20079;-67
2023/02/27 04:18:32;;;;;;;3.42;1.17;;;;;;;17.47;40.29;102782.69;5123877;27;20409;-69
2023/02/27 04:21:14;;;;;;;4.38;1.10;;;;;;;17.46;40.33;102780.97;5113961;27;20391;-70
2023/02/27 04:23:50;;;;;;;3.17;0.90;;;;;;;17.46;40.28;102773.03;5123836;27;20047;-68
2023/02/27 04:26:30;;;;;;;2.40;1.00;;;;;;;17.46;40.01;102781.81;5124119;27;20115;-68
2023/02/27 04:29:17;;;;;;;4.55;1.00;;;;;;;17.47;40.22;102783.53;5123977;27;20015;-68
2023/02/27 04:32:05;;;;;;;4.22;1.00;;;;;;;17.47;40.21;102787.94;5124470;27;20035;-68
2023/02/27 04:34:41;;;;;;;2.95;1.00;;;;;;;17.48;40.23;102792.28;5122625;27;20502;-68
2023/02/27 04:37:17;;;;;;;4.20;1.00;;;;;;;17.47;40.41;102793.22;5123695;27;20406;-68
2023/02/27 04:39:52;;;;;;;3.30;1.10;;;;;;;17.48;40.29;102792.28;5123860;27;20027;-68
2023/02/27 04:42:23;;;;;;;3.35;1.10;;;;;;;17.48;40.33;102798.41;5123396;27;20023;-68
2023/02/27 04:44:50;;;;;;;3.85;1.02;;;;;;;17.48;40.09;102798.41;5123681;27;20027;-68
2023/02/27 04:47:18;;;;;;;3.60;1.17;;;;;;;17.45;40.30;102789.78;5123103;27;20034;-69
2023/02/27 04:49:50;;;;;;;3.55;1.23;;;;;;;17.45;40.23;102792.41;5123869;27;20034;-69
2023/02/27 04:52:21;;;;;;;6.47;1.38;;;;;;;17.48;40.15;102798.41;5123377;27;20749;-68
2023/02/27 04:54:59;;;;;;;4.78;1.10;;;;;;;17.50;40.43;102803.59;5123302;27;20027;-68
2023/02/27 04:57:33;;;;;;;2.75;0.90;;;;;;;17.49;40.46;102800.09;5123114;27;20519;-69
2023/02/27 05:00:04;;;;;;;3.47;1.00;;;;;;;17.47;40.35;102788.78;5123303;27;20138;-68
2023/02/27 05:02:42;;;;;;;3.20;1.10;;;;;;;17.47;40.46;102794.06;5123489;27;20563;-69
2023/02/27 05:05:14;;;;;;;2.95;1.08;;;;;;;17.49;40.17;102801.91;5123747;27;20485;-69
2023/02/27 05:07:55;;;;;;;3.08;0.95;;;;;;;17.49;40.35;102801.91;5123136;27;20080;-68
2023/02/27 05:10:29;;;;;;;3.45;1.00;;;;;;;17.47;40.44;102801.97;5122836;27;20038;-69
2023/02/27 05:13:11;;;;;;;2.83;0.95;;;;;;;17.49;40.24;102804.53;5123089;27;20031;-69
2023/02/27 05:15:42;;;;;;;3.05;0.90;;;;;;;17.50;40.32;102803.59;5122953;27;20058;-69
2023/02/27 05:18:10;;;;;;;3.80;1.42;;;;;;;17.48;40.19;102802.81;5123382;27;20578;-68
2023/02/27 05:21:04;;;;;;;3.92;0.90;;;;;;;17.50;40.13;102820.28;5122918;27;20035;-68
2023/02/27 05:24:00;;;;;;;4.35;0.88;;;;;;;17.47;40.39;102812.50;5122786;27;20050;-68
2023/02/27 05:27:03;;;;;;;1.88;0.90;;;;;;;17.47;40.06;102814.31;5122631;27;20138;-69
2023/02/27 05:29:51;;;;;;;3.08;1.10;;;;;;;17.49;40.28;102812.44;5122133;27;20039;-69
2023/02/27 05:32:41;;;;;;;2.35;0.93;;;;;;;17.48;40.51;102816.00;5122556;27;20031;-70
2023/02/27 05:35:18;;;;;;;3.30;1.00;;;;;;;17.47;40.10;102814.31;5122762;27;20555;-67
2023/02/27 05:37:50;;;;;;;3.05;1.13;;;;;;;17.43;40.11;102816.22;5122616;27;20454;-69
2023/02/27 05:40:22;;;;;;;2.13;0.70;;;;;;;17.45;39.52;102816.13;5122394;27;20076;-69
2023/02/27 05:42:59;;;;;;;2.83;1.00;;;;;;;17.45;39.47;102813.50;5123006;27;20035;-69
2023/02/27 05:45:29;;;;;;;4.07;1.10;;;;;;;17.49;39.43;102818.56;5122579;27;20034;-69
2023/02/27 05:47:59;;;;;;;2.08;0.70;;;;;;;17.52;39.26;102810.50;5122315;27;20103;-68
2023/02/27 05:50:30;;;;;;;3.25;1.00;;;;;;;17.56;39.26;102813.84;5122507;27;20031;-68
2023/02/27 05:53:00;;;;;;;3.22;0.80;;;;;;;17.62;39.69;102824.09;5122698;27;20031;-68
2023/02/27 05:55:35;;;;;;;2.88;1.23;;;;;;;17.67;39.47;102830.00;5122621;27;20027;-68
2023/02/27 05:58:09;;;;;;;3.83;0.80;;;;;;;17.69;39.23;102830.81;5120707;27;20494;-68
2023/02/27 06:00:37;;;;;;;;;;;;;;;17.78;39.27;102834.75;5122557;27;20050;-68
2023/02/27 06:03:03;;;;;;;2.38;0.90;;;;;;;17.77;39.43;102833.91;5122093;27;19911;-68
2023/02/27 06:05:29;;;;;;;3.08;0.90;;;;;;;17.82;39.12;102835.50;5121666;27;20102;-68
2023/02/27 06:07:54;;;;;;;3.03;0.90;;;;;;;17.82;39.27;102843.41;5121952;27;20037;-69
2023/02/27 06:10:21;;;;;;;2.67;1.20;;;;;;;17.84;39.30;102838.91;5121512;27;20387;-69
2023/02/27 06:12:47;;;;;;;2.63;0.80;;;;;;;17.86;39.22;102844.94;5103770;27;20063;-68
2023/02/27 06:15:12;;;;;;;2.30;0.80;;;;;;;17.86;39.23;102842.31;5121804;27;20510;-69
2023/02/27 06:17:38;;;;;;;3.47;0.90;;;;;;;17.88;39.14;102851.03;5122307;27;20161;-71
2023/02/27 06:20:05;;;;;;;3.67;0.95;;;;;;;17.88;39.11;102851.03;5121871;27;20069;-68
2023/02/27 06:22:32;;;;;;;3.38;0.95;;;;;;;17.88;39.09;102846.63;5121220;27;20434;-70
2023/02/27 06:24:57;;;;;;;2.63;1.00;;;;;;;17.90;38.98;102852.69;5121976;27;20031;-70
2023/02/27 06:27:23;;;;;;;3.45;0.90;;;;;;;17.89;39.02;102850.94;5121564;27;20027;-70
2023/02/27 06:29:48;;;;;;;2.78;0.60;;;;;;;17.93;39.14;102860.44;5121406;27;20537;-69
2023/02/27 06:32:13;;;;;;;3.67;0.90;;;;;;;17.94;39.11;102856.88;5121751;28;20383;-68
2023/02/27 06:34:39;;;;;;;3.70;0.90;;;;;;;17.95;39.05;102865.66;5121964;28;20031;-68
2023/02/27 06:37:04;;;;;;;2.23;0.80;;;;;;;17.95;39.26;102860.38;5103287;28;20038;-69
2023/02/27 06:39:29;;;;;;;2.47;0.70;;;;;;;17.95;39.42;102868.28;5121925;28;20259;-69
2023/02/27 06:41:54;;;;;;;3.17;0.88;;;;;;;17.94;39.39;102863.91;5121280;27;20122;-70
2023/02/27 06:44:20;;;;;;;4.07;0.73;;;;;;;17.95;39.23;102871.75;5121202;28;20494;-68
2023/02/27 06:46:45;;;;;;;4.53;0.98;;;;;;;17.94;39.05;102872.72;5121350;27;20054;-68
2023/02/27 06:49:10;;;;;;;2.53;1.00;;;;;;;17.97;38.69;102887.53;5121395;28;20027;-68
2023/02/27 06:51:36;;;;;;;3.38;0.85;;;;;;;17.96;39.33;102891.09;5121193;28;20251;-68
2023/02/27 06:54:01;;;;;;;1.88;0.75;;;;;;;17.94;39.32;102883.25;5121261;27;20114;-68
2023/02/27 06:56:26;;;;;;;2.40;1.13;;;;;;;17.96;39.14;102888.47;5121368;28;20080;-68
2023/02/27 06:58:52;;;;;;;2.65;0.90;;;;;;;17.94;39.33;102888.53;5121160;27;20485;-69
2023/02/27 07:01:17;;;;;;;1.48;0.70;;;;;;;17.97;39.06;102900.72;5120950;27;20346;-69
2023/02/27 07:03:42;;;;;;;2.78;1.00;;;;;;;17.97;39.23;102908.63;5121252;28;20531;-69
2023/02/27 07:06:08;;;;;;;4.22;1.00;;;;;;;17.95;39.19;102906.06;5121239;27;20429;-69
2023/02/27 07:08:34;;;;;;;4.00;1.10;;;;;;;17.98;39.56;102912.97;5121336;28;20035;-67
2023/02/27 07:11:00;;;;;;;3.65;1.10;;;;;;;17.95;39.08;102913.97;5120905;27;20137;-69
2023/02/27 07:13:25;;;;;;;3.33;0.88;;;;;;;17.99;39.40;102924.38;5121251;28;20399;-69
2023/02/27 07:15:51;;;;;;;3.00;0.93;;;;;;;17.97;39.14;102920.97;5121139;27;20051;-67
2023/02/27 07:18:16;;;;;;;2.65;1.10;;;;;;;17.98;39.06;102934.09;5123493;27;20039;-70
2023/02/27 07:20:41;;;;;;;4.78;1.10;;;;;;;17.98;39.37;102928.81;5125027;27;20027;-68
2023/02/27 07:23:07;;;;;;;2.55;0.95;;;;;;;18.00;39.30;102934.00;5124909;27;20459;-68
2023/02/27 07:25:32;;;;;;;2.58;0.90;;;;;;;17.98;39.33;102935.88;5125299;27;20035;-68
2023/02/27 07:27:57;;;;;;;3.35;1.10;;;;;;;17.99;39.45;102934.94;5124374;27;20427;-69
2023/02/27 07:30:23;;;;;;;3.00;1.00;;;;;;;18.00;39.12;102934.88;5124924;27;20034;-69
2023/02/27 07:32:49;;;;;;;3.15;0.90;;;;;;;17.99;39.24;102933.19;5124877;27;20033;-69
2023/02/27 07:35:14;;;;;;;2.85;0.90;;;;;;;17.99;39.05;102930.53;5125032;27;20035;-69
2023/02/27 07:37:40;;;;;;;2.15;0.90;;;;;;;17.99;39.06;102927.03;5124695;27;20532;-70
2023/02/27 07:40:09;;;;;;;3.78;1.30;;;;;;;18.02;39.04;102933.00;5125135;27;20464;-69
2023/02/27 07:42:34;;;;;;;2.53;0.93;;;;;;;18.01;38.98;102925.16;5124634;27;20030;-68
2023/02/27 07:45:00;;;;;;;3.15;1.00;;;;;;;18.02;39.15;102927.72;5124598;27;20034;-68
2023/02/27 07:47:26;;;;;;;3.45;1.10;;;;;;;18.01;38.98;102922.50;5124894;27;20027;-69
2023/02/27 07:49:51;;;;;;;3.97;1.05;;;;;;;18.04;39.30;102927.66;5106330;27;20417;-69
2023/02/27 07:52:17;;;;;;;2.80;0.90;;;;;;;18.02;38.90;102924.25;5124593;27;20035;-69
2023/02/27 07:54:42;;;;;;;2.42;0.90;;;;;;;18.05;38.92;102932.84;5124353;27;20050;-69
2023/02/27 07:57:07;;;;;;;3.15;0.95;;;;;;;18.06;38.94;102933.72;5124539;27;20031;-69
2023/02/27 07:59:32;;;;;;;2.38;0.90;;;;;;;18.09;38.98;102938.84;5124549;27;20062;-67
2023/02/27 08:01:58;;;;;;;3.53;1.30;;;;;;;18.09;39.00;102941.50;5124707;27;20031;-68
2023/02/27 08:04:23;;;;;;;4.10;1.25;;;;;;;18.07;38.96;102940.69;5124349;27;20050;-69
2023/02/27 08:06:48;;;;;;;3.08;1.13;;;;;;;18.10;39.02;102937.91;5123202;27;20027;-69
2023/02/27 08:09:14;;;;;;;3.72;1.10;;;;;;;18.08;39.00;102935.34;5124380;27;20205;-68
2023/02/27 08:11:39;;;;;;;4.50;1.65;;;;;;;18.07;38.96;102936.28;5124102;27;20035;-69
2023/02/27 08:14:05;;;;;;;4.05;1.25;;;;;;;18.07;39.32;102938.06;5124230;27;20058;-69
2023/02/27 08:16:30;;;;;;;3.75;1.20;;;;;;;18.03;39.57;102925.97;5124322;27;20075;-69
2023/02/27 08:18:57;;;;;;;4.63;1.27;;;;;;;18.11;39.84;102942.28;5124176;27;20564;-67
2023/02/27 08:21:22;;;;;;;4.10;1.33;;;;;;;18.10;40.03;102941.44;5124102;27;20062;-67
2023/02/27 08:23:48;;;;;;;2.85;1.00;;;;;;;18.12;40.11;102941.34;5124265;27;20399;-66
2023/02/27 08:26:13;;;;;;;3.55;1.20;;;;;;;18.16;40.10;102945.53;5105204;27;20033;-67
2023/02/27 08:28:39;;;;;;;2.83;1.00;;;;;;;18.18;40.02;102948.09;5123670;27;20072;-68
2023/02/27 08:31:05;;;;;;;2.70;1.02;;;;;;;18.17;40.37;102946.41;5123603;27;20468;-67
2023/02/27 08:33:31;;;;;;;3.67;1.08;;;;;;;18.13;40.27;102932.47;5124265;27;20034;-67
2023/02/27 08:35:56;;;;;;;4.47;1.48;;;;;;;18.18;40.30;102948.94;5123984;27;20038;-67
2023/02/27 08:38:21;;;;;;;3.88;1.10;;;;;;;18.20;40.39;102947.09;5123851;27;20045;-68
2023/02/27 08:40:52;;;;;;;4.40;1.13;;;;;;;18.19;40.60;102950.66;5123301;27;20035;-65
2023/02/27 08:43:17;;;;;;;3.55;1.38;;;;;;;18.21;40.59;102955.88;5123763;27;20039;-70
2023/02/27 08:45:42;;;;;;;2.67;1.00;;;;;;;18.23;40.50;102957.53;5105117;27;20060;-68
2023/02/27 08:48:07;;;;;;;3.42;1.00;;;;;;;18.27;40.45;102959.06;5123933;27;20360;-68
2023/02/27 08:50:33;;;;;;;4.63;1.00;;;;;;;18.30;40.58;102958.91;5123639;27;20160;-67
2023/02/27 08:52:58;;;;;;;2.65;0.90;;;;;;;18.30;40.60;102964.19;5123915;27;20041;-68
2023/02/27 08:55:23;;;;;;;7.00;1.63;;;;;;;18.31;40.84;102962.44;5123486;27;20064;-72
2023/02/27 08:57:49;;;;;;;3.40;1.15;;;;;;;18.33;40.67;102962.34;5122552;27;20046;-68
2023/02/27 09:00:15;;;;;;;3.55;1.48;;;;;;;18.30;40.88;102958.06;5123044;27;20031;-68
2023/02/27 09:02:40;;;;;;;4.50;1.10;;;;;;;18.35;40.66;102961.34;5120039;27;20530;-68
2023/02/27 09:05:06;;;;;;;7.15;1.10;;;;;;;18.40;41.15;102975.16;5103217;27;20049;-70
2023/02/27 09:07:33;;;;;;;6.18;1.35;;;;;;;18.40;41.55;102969.88;5103744;27;20505;-70
2023/02/27 09:09:58;;;;;;;3.80;1.30;;;;;;;18.44;41.63;102973.25;5122634;27;20455;-67
2023/02/27 09:12:24;;;;;;;3.83;1.17;;;;;;;18.46;41.42;102974.00;5121924;27;20039;-69
2023/02/27 09:14:49;;;;;;;6.28;1.10;;;;;;;18.45;41.32;102969.66;5122599;27;20080;-68
2023/02/27 09:17:14;;;;;;;4.47;1.10;;;;;;;18.48;41.32;102970.38;5124393;27;20059;-66
2023/02/27 09:19:39;;;;;;;3.35;1.45;;;;;;;18.52;41.45;102975.47;5122654;27;20400;-67
2023/02/27 09:22:05;;;;;;;3.67;1.08;;;;;;;18.52;41.78;102964.91;5103783;27;20035;-67
2023/02/27 09:24:30;;;;;;;5.00;1.10;;;;;;;18.55;41.51;102976.22;5122008;27;20026;-69
2023/02/27 09:26:55;;;;;;;4.13;1.00;;;;;;;18.56;41.71;102977.06;5122565;27;20267;-66
2023/02/27 09:29:22;;;;;;;4.90;1.10;;;;;;;18.59;41.57;102976.91;5122066;27;20955;-66
2023/02/27 09:31:48;;;;;;;5.35;1.40;;;;;;;18.61;41.71;102982.94;5121708;27;20255;-67
2023/02/27 09:34:13;;;;;;;5.60;1.15;;;;;;;18.63;41.86;102984.59;5122239;27;20477;-67
2023/02/27 09:36:38;;;;;;;4.80;1.05;;;;;;;18.63;41.90;102986.41;5122451;27;20042;-69
2023/02/27 09:39:04;;;;;;;5.53;1.10;;;;;;;18.66;41.86;102986.25;5121786;27;20027;-67
2023/02/27 09:41:58;;;;;;;3.88;1.10;;;;;;;18.70;42.31;102993.06;5121045;27;20042;-67
2023/02/27 09:44:40;;;;;;;2.88;1.10;;;;;;;18.70;42.36;102987.78;5107710;27;20043;-67
2023/02/27 09:47:11;;;;;;;5.15;1.17;;;;;;;18.71;42.15;102984.22;5121545;27;20081;-69
2023/02/27 09:49:50;;;;;;;10.32;1.20;;;;;;;18.67;42.12;102983.53;5121623;27;20042;-70
2023/02/27 09:52:15;;;;;;;3.35;0.93;;;;;;;18.71;42.40;102984.22;5102886;27;20053;-68
2023/02/27 09:54:41;;;;;;;3.45;1.27;;;;;;;18.72;42.28;102979.78;5121864;27;20039;-68
2023/02/27 09:57:14;;;;;;;4.18;1.15;;;;;;;18.71;42.58;102980.72;5121356;27;20039;-67
2023/02/27 09:59:42;;;;;;;3.67;0.95;;;;;;;18.70;42.57;102976.38;5121658;27;20038;-65
2023/02/27 10:02:40;;;;;;;4.50;1.10;;;;;;;18.78;42.64;102980.31;5121496;27;20519;-68
2023/02/27 10:05:08;;;;;;;6.35;1.17;;;;;;;18.83;42.45;102978.31;5074675;27;20051;-66
2023/02/27 10:07:43;;;;;;;3.30;1.00;;;;;;;18.88;42.60;102977.25;5121521;27;20487;-69
2023/02/27 10:10:24;;;;;;;3.45;1.13;;;;;;;18.88;42.47;102993.09;5121422;27;20424;-68
2023/02/27 10:13:08;;;;;;;4.30;1.00;;;;;;;18.90;42.44;102985.94;5121686;27;20042;-68
2023/02/27 10:15:38;;;;;;;5.07;1.00;;;;;;;18.89;42.32;102985.09;5121150;27;20083;-66
2023/02/27 10:18:06;;;;;;;5.00;1.20;;;;;;;18.84;42.30;102981.84;5121357;27;20031;-69
2023/02/27 10:20:35;;;;;;;5.60;1.00;;;;;;;18.87;42.47;102983.47;5120930;27;20027;-68
2023/02/27 10:23:09;;;;;;;3.38;1.05;;;;;;;18.89;42.41;102992.19;5121535;27;20026;-63
2023/02/27 10:25:39;;;;;;;;;;;;;;;18.96;42.13;102983.00;5122203;27;20031;-69
2023/02/27 10:28:14;;;;;;;5.88;1.08;;;;;;;18.96;41.76;102983.00;5118123;27;19960;-69
2023/02/27 10:30:40;;;;;;;7.30;0.90;;;;;;;19.00;41.93;102977.47;5120240;28;20043;-68
2023/02/27 10:33:10;;;;;;;3.75;1.00;;;;;;;18.95;41.61;102976.88;5120879;28;20039;-68
2023/02/27 10:35:42;;;;;;;3.92;1.02;;;;;;;18.93;41.17;102978.75;5121499;28;20056;-69
2023/02/27 10:38:13;;;;;;;4.03;1.10;;;;;;;18.93;40.73;102972.59;5121826;28;20054;-68
2023/02/27 10:40:40;;;;;;;2.83;1.00;;;;;;;18.89;40.80;102969.25;5121448;28;20027;-67
2023/02/27 10:43:06;;;;;;;3.40;0.90;;;;;;;18.90;41.01;102975.38;5122034;28;20037;-67
2023/02/27 10:45:31;;;;;;;3.38;0.95;;;;;;;18.87;41.00;102964.97;5121378;27;20023;-67
2023/02/27 10:47:57;;;;;;;4.20;1.30;;;;;;;18.87;41.15;102962.31;5121900;27;20038;-68
2023/02/27 10:50:28;;;;;;;3.35;1.00;;;;;;;18.87;41.33;102970.25;5121220;27;20420;-68
2023/02/27 10:52:57;;;;;;;2.80;0.80;;;;;;;18.83;41.28;102975.69;5125621;27;20380;-68
2023/02/27 10:55:28;;;;;;;3.50;0.90;;;;;;;18.79;41.59;102949.50;5125541;27;20027;-67
2023/02/27 10:57:56;;;;;;;2.33;0.82;;;;;;;18.78;41.49;102953.06;5125806;27;20039;-68
2023/02/27 11:00:44;;;;;;;2.78;0.88;;;;;;;18.76;41.78;102942.56;5125759;27;20498;-68
2023/02/27 11:03:22;;;;;;;3.45;0.90;;;;;;;18.79;41.46;102944.22;5125156;27;20034;-68
2023/02/27 11:06:11;;;;;;;4.10;0.90;;;;;;;18.76;41.22;102947.00;5125384;27;20031;-68
2023/02/27 11:08:36;;;;;;;3.15;0.85;;;;;;;18.75;41.26;102940.00;5125622;27;20031;-68
2023/02/27 11:11:11;;;;;;;2.97;0.93;;;;;;;18.70;40.91;102940.25;5124963;27;20035;-68
2023/02/27 11:13:43;;;;;;;3.42;0.90;;;;;;;18.68;40.89;102937.69;5125610;27;20066;-69
2023/02/27 11:16:12;;;;;;;4.07;1.17;;;;;;;18.72;40.85;102930.44;5124637;27;20548;-68
2023/02/27 11:18:40;;;;;;;3.50;0.88;;;;;;;18.70;40.88;102923.56;5125303;27;20087;-68
2023/02/27 11:21:25;;;;;;;2.22;0.82;;;;;;;18.73;40.97;102931.31;5123142;27;20027;-69
2023/02/27 11:24:03;;;;;;;2.25;0.77;;;;;;;18.66;40.80;102899.09;5124607;27;20035;-68
2023/02/27 11:26:40;;;;;;;5.30;0.88;;;;;;;18.71;40.87;102923.47;5122717;27;20398;-66
2023/02/27 11:29:17;;;;;;;3.42;1.02;;;;;;;18.76;40.78;102920.59;5125047;27;20598;-65
2023/02/27 11:31:56;;;;;;;4.55;0.88;;;;;;;18.76;40.67;102913.50;5123183;27;20030;-68
2023/02/27 11:34:27;;;;;;;4.50;0.90;;;;;;;18.79;41.49;102901.94;5124229;27;20031;-66
2023/02/27 11:36:59;;;;;;;3.55;0.80;;;;;;;18.81;41.90;102906.19;5124249;27;20039;-65
2023/02/27 11:39:32;;;;;;;3.75;0.80;;;;;;;18.83;42.06;102914.94;5124097;27;20054;-65
2023/02/27 11:42:08;;;;;;;2.83;0.80;;;;;;;18.88;42.06;102908.56;5123959;27;20023;-66
2023/02/27 11:44:33;;;;;;;4.75;1.20;;;;;;;18.84;41.47;102889.38;5123020;27;20212;-66
2023/02/27 11:47:18;;;;;;;3.80;0.80;;;;;;;18.83;41.41;102892.91;5123437;27;20637;-67